Time;durP1;ratioP1;P1;durP2;ratioP2;P2;SDS_P1;SDS_P2;PMS_P1;PMS_P2;Temp;Humidity;BMP_temperature;BMP_pressure;BME280_temperature;BME280_humidity;BME280_pressure;Samples;Min_cycle;Max_cycle;Signal;HPM_P1;HPM_P2
2023/05/22 00:00:12;;;;;;;576.03;539.33;;;13.60;38.30;;;;;;5011110;28;20266;-74
2023/05/22 00:02:41;;;;;;;861.63;799.67;;;13.50;39.30;;;;;;5047433;22;20696;-71
2023/05/22 00:05:09;;;;;;;1022.57;947.50;;;13.50;39.30;;;;;;5031672;28;20468;-71
2023/05/22 00:07:35;;;;;;;684.63;638.63;;;13.40;39.80;;;;;;5031522;28;20781;-71
2023/05/22 00:10:00;;;;;;;1007.20;934.97;;;13.40;39.70;;;;;;5031545;28;20463;-71
2023/05/22 00:12:26;;;;;;;787.37;733.33;;;13.40;40.20;;;;;;5031216;28;20202;-70
2023/05/22 00:14:52;;;;;;;981.60;910.93;;;13.40;40.50;;;;;;5031795;28;20184;-70
2023/05/22 00:17:17;;;;;;;983.33;912.40;;;13.30;41.00;;;;;;5031582;28;20178;-71
2023/05/22 00:19:43;;;;;;;909.57;844.90;;;13.30;40.80;;;;;;5031467;28;20175;-71
2023/05/22 00:22:09;;;;;;;409.57;385.90;;;13.30;40.90;;;;;;5031164;28;20203;-70
2023/05/22 00:24:34;;;;;;;717.27;670.33;;;13.30;40.40;;;;;;5031420;28;20188;-70
2023/05/22 00:27:00;;;;;;;966.10;897.70;;;13.20;41.30;;;;;;5031818;28;20179;-71
2023/05/22 00:29:25;;;;;;;929.33;863.63;;;13.20;41.80;;;;;;5034980;28;20654;-70
2023/05/22 00:31:51;;;;;;;882.60;821.43;;;13.20;41.10;;;;;;5034830;28;20227;-71
2023/05/22 00:34:17;;;;;;;569.00;535.07;;;13.20;41.70;;;;;;5035095;28;20641;-70
2023/05/22 00:36:43;;;;;;;908.90;845.10;;;13.10;41.50;;;;;;5035112;28;20181;-70
2023/05/22 00:39:08;;;;;;;860.63;799.90;;;13.10;41.60;;;;;;5035041;28;20184;-70
2023/05/22 00:41:34;;;;;;;516.97;486.20;;;13.10;42.20;;;;;;5034525;28;20433;-71
2023/05/22 00:44:01;;;;;;;971.33;902.90;;;13.10;41.60;;;;;;5016973;28;20183;-71
2023/05/22 00:46:27;;;;;;;814.87;759.73;;;13.10;42.70;;;;;;5034827;28;20414;-71
2023/05/22 00:48:53;;;;;;;686.60;640.33;;;13.00;43.00;;;;;;5034719;28;20902;-70
2023/05/22 00:51:22;;;;;;;887.17;826.63;;;13.00;43.50;;;;;;5016745;28;20471;-71
2023/05/22 00:53:49;;;;;;;704.77;658.23;;;12.90;43.90;;;;;;5034463;28;20184;-71
2023/05/22 00:56:15;;;;;;;765.90;714.80;;;12.90;43.90;;;;;;5034536;28;20784;-71
2023/05/22 00:58:42;;;;;;;684.83;642.10;;;12.90;44.20;;;;;;5034487;28;20426;-70
2023/05/22 01:01:10;;;;;;;838.03;780.20;;;12.80;44.60;;;;;;5034593;28;20470;-70
2023/05/22 01:03:41;;;;;;;903.53;840.73;;;12.80;45.30;;;;;;5016367;28;20447;-71
2023/05/22 01:06:06;;;;;;;574.93;537.53;;;12.80;46.20;;;;;;5034409;28;20419;-71
2023/05/22 01:08:32;;;;;;;553.07;519.73;;;12.80;46.10;;;;;;5034294;28;20510;-71
2023/05/22 01:11:07;;;;;;;718.90;671.70;;;12.80;46.20;;;;;;5034215;28;20210;-70
2023/05/22 01:13:48;;;;;;;581.07;545.63;;;12.80;46.60;;;;;;5033947;28;20187;-71
2023/05/22 01:16:20;;;;;;;912.80;849.10;;;12.80;45.80;;;;;;5034215;28;20457;-71
2023/05/22 01:19:03;;;;;;;785.07;734.73;;;12.80;47.00;;;;;;5034169;28;20767;-71
2023/05/22 01:21:51;;;;;;;678.10;635.53;;;12.80;45.90;;;;;;5033947;28;20503;-71
2023/05/22 01:24:42;;;;;;;866.53;806.63;;;12.70;46.20;;;;;;5034132;28;20517;-71
2023/05/22 01:27:28;;;;;;;475.17;448.47;;;12.70;46.40;;;;;;5033923;28;20439;-71
2023/05/22 01:30:32;;;;;;;795.17;742.80;;;12.70;45.60;;;;;;5034085;28;20501;-71
2023/05/22 01:32:58;;;;;;;440.23;415.23;;;12.60;46.10;;;;;;5000782;28;20434;-70
2023/05/22 01:35:25;;;;;;;850.70;792.83;;;12.60;47.00;;;;;;5033803;28;20414;-71
2023/05/22 01:37:52;;;;;;;405.97;383.17;;;12.60;47.20;;;;;;5033548;28;20464;-70
2023/05/22 01:40:19;;;;;;;823.20;765.77;;;12.60;47.40;;;;;;5015977;28;20633;-72
2023/05/22 01:42:44;;;;;;;555.37;520.00;;;12.60;47.80;;;;;;5033372;28;20414;-70
2023/05/22 01:45:11;;;;;;;861.27;801.60;;;12.50;47.10;;;;;;5034061;28;20422;-70
2023/05/22 01:47:36;;;;;;;940.87;876.83;;;12.50;47.60;;;;;;5033573;28;20184;-70
2023/05/22 01:50:04;;;;;;;615.77;578.13;;;12.50;47.90;;;;;;5033725;28;20542;-70
2023/05/22 01:52:56;;;;;;;440.70;415.80;;;12.50;48.00;;;;;;5015372;28;20707;-69
2023/05/22 01:55:33;;;;;;;482.70;453.00;;;12.40;47.90;;;;;;5033461;28;20417;-70
2023/05/22 01:58:08;;;;;;;616.30;575.70;;;12.40;48.50;;;;;;5015580;28;20563;-70
2023/05/22 02:00:36;;;;;;;624.70;585.10;;;12.40;48.50;;;;;;5033321;28;20426;-70
2023/05/22 02:03:11;;;;;;;899.77;836.70;;;12.40;48.90;;;;;;5032894;28;20535;-71
2023/05/22 02:05:38;;;;;;;689.03;646.43;;;12.30;49.60;;;;;;5033238;28;20981;-70
2023/05/22 02:08:05;;;;;;;445.47;420.60;;;12.40;49.60;;;;;;5033321;28;20447;-70
2023/05/22 02:10:32;;;;;;;396.00;373.43;;;12.40;49.10;;;;;;5015358;28;20822;-70
2023/05/22 02:12:59;;;;;;;470.63;444.63;;;12.40;49.90;;;;;;5032698;28;20444;-70
2023/05/22 02:15:24;;;;;;;763.50;711.57;;;12.40;50.30;;;;;;5033174;28;20416;-70
2023/05/22 02:17:51;;;;;;;715.37;670.13;;;12.40;50.50;;;;;;5033052;28;20406;-70
2023/05/22 02:20:18;;;;;;;794.27;740.43;;;12.40;50.20;;;;;;5015186;28;20555;-70
2023/05/22 02:22:45;;;;;;;601.83;563.90;;;12.40;49.70;;;;;;5032685;28;20519;-70
2023/05/22 02:25:13;;;;;;;431.23;407.73;;;12.40;50.30;;;;;;5015118;28;20430;-70
2023/05/22 02:27:43;;;;;;;500.80;472.27;;;12.40;49.30;;;;;;5032898;28;20414;-70
2023/05/22 02:30:09;;;;;;;638.13;595.63;;;12.40;49.10;;;;;;5032663;28;20465;-70
2023/05/22 02:32:35;;;;;;;545.60;511.87;;;12.50;49.20;;;;;;5032413;28;20476;-70
2023/05/22 02:35:02;;;;;;;597.63;561.03;;;12.50;48.60;;;;;;5033357;28;20411;-70
2023/05/22 02:37:27;;;;;;;741.17;688.40;;;12.50;47.90;;;;;;5033525;28;20175;-69
2023/05/22 02:39:53;;;;;;;812.60;754.97;;;12.50;47.90;;;;;;5033542;28;20416;-70
2023/05/22 02:42:18;;;;;;;813.43;756.67;;;12.50;48.20;;;;;;5032886;28;20203;-70
2023/05/22 02:44:44;;;;;;;566.37;531.43;;;12.60;47.40;;;;;;5032991;28;20182;-69
2023/05/22 02:47:09;;;;;;;767.83;714.63;;;12.50;47.70;;;;;;5033050;28;20175;-69
2023/05/22 02:49:35;;;;;;;616.27;577.83;;;12.60;48.70;;;;;;5032278;28;20174;-70
2023/05/22 02:52:00;;;;;;;505.43;475.23;;;12.70;47.50;;;;;;5032429;28;20195;-71
2023/05/22 02:54:26;;;;;;;810.87;756.33;;;12.70;47.50;;;;;;5032886;28;20167;-70
2023/05/22 02:56:51;;;;;;;735.60;687.13;;;12.80;47.40;;;;;;5032943;28;20201;-71
2023/05/22 02:59:17;;;;;;;785.40;731.03;;;12.90;46.30;;;;;;5032767;28;20175;-70
2023/05/22 03:01:43;;;;;;;658.20;615.33;;;12.90;46.10;;;;;;5032698;28;20237;-70
2023/05/22 03:04:08;;;;;;;803.90;750.33;;;13.00;45.20;;;;;;5015663;28;20179;-70
2023/05/22 03:06:35;;;;;;;637.77;596.03;;;13.10;44.40;;;;;;5032710;28;20226;-70
2023/05/22 03:09:03;;;;;;;523.80;493.77;;;13.10;44.60;;;;;;5032337;28;20171;-70
2023/05/22 03:11:29;;;;;;;626.30;587.37;;;13.10;44.60;;;;;;5031922;28;20910;-70
2023/05/22 03:13:55;;;;;;;773.80;721.93;;;13.10;44.80;;;;;;5032109;28;20402;-70
2023/05/22 03:16:21;;;;;;;912.77;846.73;;;13.20;44.10;;;;;;5032230;28;20765;-69
2023/05/22 03:18:48;;;;;;;579.03;545.13;;;13.20;44.10;;;;;;5031984;28;20179;-70
2023/05/22 03:21:13;;;;;;;647.27;607.27;;;13.20;43.40;;;;;;5031922;28;20264;-70
2023/05/22 03:23:39;;;;;;;477.20;449.63;;;13.30;44.30;;;;;;5031777;28;21041;-70
2023/05/22 03:26:04;;;;;;;645.53;601.40;;;13.30;44.20;;;;;;5032189;28;20265;-70
2023/05/22 03:28:30;;;;;;;703.83;657.83;;;13.40;43.40;;;;;;5014234;28;20179;-70
2023/05/22 03:30:55;;;;;;;343.07;322.93;;;13.40;42.50;;;;;;5014204;28;20568;-70
2023/05/22 03:33:21;;;;;;;668.00;622.57;;;13.50;42.50;;;;;;5013968;28;20614;-70
2023/05/22 03:35:47;;;;;;;457.23;429.63;;;13.40;43.10;;;;;;5031890;28;20665;-70
2023/05/22 03:38:12;;;;;;;347.30;326.90;;;13.50;42.00;;;;;;5031910;28;20179;-70
2023/05/22 03:40:38;;;;;;;762.20;709.47;;;13.60;42.20;;;;;;5031819;28;20188;-71
2023/05/22 03:43:03;;;;;;;982.60;912.67;;;13.60;41.20;;;;;;5013919;28;20207;-71
2023/05/22 03:45:29;;;;;;;588.97;555.77;;;13.70;41.90;;;;;;5031816;28;20210;-71
2023/05/22 03:47:54;;;;;;;316.37;296.70;;;13.70;41.40;;;;;;5031776;28;20582;-70
2023/05/22 03:50:20;;;;;;;602.07;565.97;;;13.80;40.70;;;;;;5031705;28;20220;-70
2023/05/22 03:52:45;;;;;;;1005.67;934.33;;;13.90;40.80;;;;;;5013705;28;20208;-71
2023/05/22 03:55:11;;;;;;;350.60;328.90;;;13.90;40.40;;;;;;5031661;28;20175;-71
2023/05/22 03:57:36;;;;;;;721.83;671.97;;;14.00;40.60;;;;;;5031562;28;20236;-70
2023/05/22 04:00:08;;;;;;;275.10;257.13;;;13.90;40.30;;;;;;5031581;28;20193;-71
2023/05/22 04:02:37;;;;;;;662.50;618.53;;;14.00;41.20;;;;;;5016544;28;20211;-70
2023/05/22 04:05:08;;;;;;;297.40;278.50;;;14.10;39.90;;;;;;5035485;28;20425;-70
2023/05/22 04:07:33;;;;;;;591.90;549.50;;;14.20;40.60;;;;;;5035607;28;20820;-70
2023/05/22 04:09:59;;;;;;;564.53;526.93;;;14.30;39.90;;;;;;5035555;28;20455;-70
2023/05/22 04:12:25;;;;;;;420.20;395.23;;;14.40;39.40;;;;;;5034992;28;20252;-70
2023/05/22 04:14:50;;;;;;;356.67;334.10;;;14.50;39.10;;;;;;5017617;28;20220;-69
2023/05/22 04:17:16;;;;;;;314.87;294.73;;;14.50;39.00;;;;;;5035396;28;20171;-69
2023/05/22 04:19:41;;;;;;;665.97;622.07;;;14.60;38.50;;;;;;5035262;28;20182;-70
2023/05/22 04:22:07;;;;;;;645.83;600.77;;;14.70;38.30;;;;;;5034761;28;20249;-69
2023/05/22 04:24:32;;;;;;;551.80;513.07;;;14.80;37.50;;;;;;5035258;28;20250;-70
2023/05/22 04:26:59;;;;;;;416.20;391.43;;;14.90;38.20;;;;;;5035010;28;20265;-69
2023/05/22 04:29:25;;;;;;;722.23;671.50;;;14.90;37.90;;;;;;5035139;28;20183;-70
2023/05/22 04:31:53;;;;;;;772.93;718.70;;;15.00;38.10;;;;;;5034577;28;20459;-74
2023/05/22 04:34:19;;;;;;;443.27;415.93;;;15.00;38.40;;;;;;5035049;28;20926;-71
2023/05/22 04:36:45;;;;;;;302.17;282.63;;;15.10;38.30;;;;;;5034980;28;20445;-71
2023/05/22 04:39:12;;;;;;;303.50;283.97;;;15.20;38.60;;;;;;5034691;28;20406;-71
2023/05/22 04:41:39;;;;;;;474.33;443.77;;;15.40;40.50;;;;;;5034519;28;20429;-71
2023/05/22 04:44:05;;;;;;;529.93;496.80;;;15.50;40.30;;;;;;5016935;28;20430;-71
2023/05/22 04:46:33;;;;;;;356.97;334.60;;;15.70;42.00;;;;;;5016942;28;20425;-71
2023/05/22 04:49:00;;;;;;;410.10;383.63;;;15.70;39.60;;;;;;5034555;28;20494;-72
2023/05/22 04:51:27;;;;;;;427.00;400.50;;;15.90;37.40;;;;;;5034365;28;20468;-72
2023/05/22 04:53:54;;;;;;;476.77;443.83;;;16.00;36.30;;;;;;5034688;28;20413;-72
2023/05/22 04:56:21;;;;;;;583.80;543.83;;;16.20;36.50;;;;;;5034415;28;20410;-72
2023/05/22 04:58:48;;;;;;;983.60;910.70;;;16.30;35.60;;;;;;5016680;28;20784;-71
2023/05/22 05:01:15;;;;;;;438.43;409.27;;;16.30;35.40;;;;;;5034259;28;20760;-72
2023/05/22 05:03:41;;;;;;;671.23;625.87;;;16.30;36.60;;;;;;5034145;28;20822;-71
2023/05/22 05:06:07;;;;;;;609.53;567.93;;;16.20;37.10;;;;;;5034224;28;20414;-71
2023/05/22 05:08:33;;;;;;;671.20;624.13;;;16.30;37.70;;;;;;5034222;28;20424;-71
2023/05/22 05:10:58;;;;;;;692.37;645.57;;;16.50;37.70;;;;;;5033998;28;20634;-72
2023/05/22 05:13:24;;;;;;;631.63;588.13;;;16.50;37.80;;;;;;5033268;28;20742;-72
2023/05/22 05:15:50;;;;;;;766.47;708.93;;;16.50;37.70;;;;;;5034108;28;20385;-71
2023/05/22 05:18:16;;;;;;;898.03;832.97;;;16.50;38.30;;;;;;5034221;28;20230;-71
2023/05/22 05:20:42;;;;;;;1001.53;925.73;;;16.50;38.70;;;;;;5034058;28;20426;-71
2023/05/22 05:23:09;;;;;;;779.67;725.63;;;16.60;37.60;;;;;;5033967;28;20285;-71
2023/05/22 05:25:37;;;;;;;903.73;837.17;;;16.70;36.90;;;;;;5033946;28;20175;-70
2023/05/22 05:28:09;;;;;;;850.87;789.83;;;16.60;36.60;;;;;;5033886;28;20479;-71
2023/05/22 05:30:36;;;;;;;848.57;787.30;;;16.60;36.70;;;;;;5015809;28;20453;-71
2023/05/22 05:33:01;;;;;;;815.23;758.20;;;16.60;36.40;;;;;;5033397;28;20516;-70
2023/05/22 05:35:27;;;;;;;566.53;528.07;;;16.60;36.80;;;;;;5033730;28;20498;-70
2023/05/22 05:37:52;;;;;;;944.93;873.20;;;16.70;37.00;;;;;;5033826;28;20182;-71
2023/05/22 05:40:18;;;;;;;799.87;744.10;;;16.80;37.10;;;;;;5015833;28;20217;-69
2023/05/22 05:42:44;;;;;;;780.77;725.17;;;17.10;37.10;;;;;;5033324;28;20199;-70
2023/05/22 05:45:10;;;;;;;767.07;711.87;;;17.30;35.50;;;;;;5015750;28;20229;-71
2023/05/22 05:47:36;;;;;;;715.37;667.80;;;17.50;34.50;;;;;;5033722;28;20186;-71
2023/05/22 05:50:01;;;;;;;604.03;566.07;;;17.70;34.00;;;;;;5015923;28;20462;-71
2023/05/22 05:52:31;;;;;;;973.03;899.27;;;18.10;32.90;;;;;;5033204;28;20192;-71
2023/05/22 05:54:57;;;;;;;715.40;669.90;;;18.40;31.20;;;;;;5033505;28;20168;-71
2023/05/22 05:57:22;;;;;;;815.73;758.43;;;18.80;30.40;;;;;;5033244;28;20414;-71
2023/05/22 05:59:48;;;;;;;623.00;583.90;;;19.00;29.40;;;;;;5015497;28;20426;-71
2023/05/22 06:02:13;;;;;;;900.40;831.10;;;19.30;28.30;;;;;;5056480;22;20238;-70
2023/05/22 06:04:40;;;;;;;967.17;890.93;;;19.60;26.50;;;;;;5032828;28;20171;-71
2023/05/22 06:07:06;;;;;;;826.97;766.90;;;19.90;25.40;;;;;;5032464;28;20577;-72
2023/05/22 06:09:32;;;;;;;664.67;620.87;;;20.10;25.30;;;;;;5032369;28;20437;-72
2023/05/22 06:11:57;;;;;;;710.37;659.90;;;20.40;25.10;;;;;;5032212;28;20586;-72
2023/05/22 06:14:23;;;;;;;836.97;775.07;;;20.60;24.80;;;;;;5032413;28;20179;-72
2023/05/22 06:16:49;;;;;;;613.97;571.07;;;20.80;23.80;;;;;;5032631;28;20262;-72
2023/05/22 06:19:14;;;;;;;657.40;612.87;;;21.10;23.10;;;;;;5014742;28;20544;-71
2023/05/22 06:21:40;;;;;;;693.07;646.53;;;21.20;23.40;;;;;;5031989;28;20714;-72
2023/05/22 06:24:06;;;;;;;756.43;701.67;;;21.60;22.00;;;;;;5032088;28;20226;-71
2023/05/22 06:26:32;;;;;;;573.47;538.10;;;22.40;21.20;;;;;;5032153;28;20175;-71
2023/05/22 06:28:57;;;;;;;994.43;912.93;;;22.70;18.40;;;;;;5032073;28;20414;-72
2023/05/22 06:31:23;;;;;;;674.47;627.60;;;23.00;17.90;;;;;;5014180;28;20268;-72
2023/05/22 06:33:50;;;;;;;700.97;652.23;;;23.50;17.00;;;;;;5031901;28;20685;-72
2023/05/22 06:36:16;;;;;;;765.80;708.93;;;24.70;9.90;;;;;;5014388;28;20911;-71
2023/05/22 06:38:42;;;;;;;674.77;629.20;;;25.50;8.80;;;;;;5031659;28;20406;-72
2023/05/22 06:41:08;;;;;;;718.73;665.70;;;27.60;10.80;;;;;;5031905;28;20191;-71
2023/05/22 06:43:33;;;;;;;678.10;631.83;;;29.60;16.50;;;;;;5031434;28;20573;-71
2023/05/22 06:45:59;;;;;;;769.83;708.43;;;31.70;10.00;;;;;;5031981;28;20274;-73
2023/05/22 06:48:24;;;;;;;796.63;732.00;;;32.00;5.40;;;;;;5032002;28;20194;-72
2023/05/22 06:50:50;;;;;;;881.70;807.23;;;30.90;6.60;;;;;;5031986;28;20203;-74
2023/05/22 06:53:15;;;;;;;666.97;620.73;;;30.40;7.00;;;;;;5031675;28;20236;-71
2023/05/22 06:55:41;;;;;;;714.10;665.57;;;30.70;6.90;;;;;;5031963;28;20207;-72
2023/05/22 06:58:07;;;;;;;722.67;669.60;;;31.30;6.40;;;;;;5031864;28;20171;-71
2023/05/22 07:00:32;;;;;;;825.40;760.70;;;32.10;5.40;;;;;;5031967;28;20437;-71
2023/05/22 07:02:58;;;;;;;874.57;805.23;;;31.60;5.20;;;;;;5031420;28;20218;-71
2023/05/22 07:05:24;;;;;;;861.93;787.90;;;29.80;6.40;;;;;;5031624;28;20172;-71
2023/05/22 07:07:50;;;;;;;802.00;736.57;;;29.10;6.00;;;;;;5031800;28;20176;-73
2023/05/22 07:10:15;;;;;;;877.20;803.87;;;28.40;6.40;;;;;;5013357;28;20207;-71
2023/05/22 07:12:41;;;;;;;834.43;766.27;;;27.80;7.80;;;;;;5031057;28;20207;-71
2023/05/22 07:15:10;;;;;;;869.87;799.87;;;27.00;9.00;;;;;;5031341;28;20179;-71
2023/05/22 07:17:37;;;;;;;880.57;809.40;;;26.70;8.80;;;;;;5030503;28;20241;-71
2023/05/22 07:20:05;;;;;;;880.13;805.60;;;26.90;8.90;;;;;;5031609;28;20414;-71
2023/05/22 07:22:31;;;;;;;984.47;897.00;;;26.80;9.60;;;;;;5031150;28;20805;-71
2023/05/22 07:24:56;;;;;;;735.53;684.40;;;26.40;10.00;;;;;;5031436;28;20458;-71
2023/05/22 07:27:22;;;;;;;708.63;659.13;;;26.20;9.80;;;;;;5031479;28;20641;-71
2023/05/22 07:29:47;;;;;;;792.97;732.40;;;25.70;11.40;;;;;;5031409;28;20206;-71
2023/05/22 07:32:13;;;;;;;829.67;765.93;;;25.50;11.30;;;;;;5030849;28;20183;-73
2023/05/22 07:34:38;;;;;;;654.87;612.97;;;25.60;11.30;;;;;;5031758;28;20171;-71
2023/05/22 07:37:10;;;;;;;711.70;661.23;;;25.30;11.10;;;;;;5017863;28;20272;-72
2023/05/22 07:39:35;;;;;;;659.60;615.77;;;25.00;12.60;;;;;;5038130;28;20175;-75
2023/05/22 07:42:01;;;;;;;731.27;680.60;;;24.70;13.10;;;;;;5019685;28;20437;-71
2023/05/22 07:44:27;;;;;;;799.73;739.40;;;24.50;14.30;;;;;;5037677;28;20167;-70
2023/05/22 07:46:54;;;;;;;923.27;849.67;;;24.20;15.00;;;;;;5037750;28;20414;-70
2023/05/22 07:49:20;;;;;;;695.77;648.60;;;24.50;15.00;;;;;;5037699;28;20202;-70
2023/05/22 07:51:46;;;;;;;860.57;793.10;;;24.70;14.80;;;;;;5037165;28;20469;-70
2023/05/22 07:54:13;;;;;;;776.27;718.30;;;24.70;15.20;;;;;;5037639;28;20479;-71
2023/05/22 07:56:40;;;;;;;864.70;796.83;;;25.20;14.10;;;;;;5019738;28;20591;-70
2023/05/22 07:59:06;;;;;;;695.30;647.70;;;25.70;13.40;;;;;;5037673;28;20452;-71
2023/05/22 08:01:32;;;;;;;847.97;780.73;;;25.80;13.10;;;;;;5037327;28;20445;-70
2023/05/22 08:03:57;;;;;;;821.47;756.90;;;26.00;12.50;;;;;;5037367;28;20436;-70
2023/05/22 08:06:23;;;;;;;716.13;663.47;;;26.20;11.60;;;;;;5037453;28;20186;-71
2023/05/22 08:08:51;;;;;;;1035.13;944.10;;;26.40;11.70;;;;;;5019980;28;20190;-70
2023/05/22 08:11:17;;;;;;;649.17;605.33;;;26.90;11.70;;;;;;5037442;28;20758;-72
2023/05/22 08:13:43;;;;;;;855.03;784.97;;;27.00;10.90;;;;;;5037107;28;20472;-70
2023/05/22 08:16:08;;;;;;;794.17;729.00;;;27.30;10.90;;;;;;5037344;28;20645;-71
2023/05/22 08:18:34;;;;;;;857.27;785.60;;;28.30;8.90;;;;;;5037277;28;20667;-72
2023/05/22 08:21:00;;;;;;;750.23;694.90;;;30.30;4.50;;;;;;5037270;28;20682;-71
2023/05/22 08:23:26;;;;;;;812.60;748.60;;;32.40;2.00;;;;;;5036785;28;20195;-71
2023/05/22 08:25:51;;;;;;;714.63;663.67;;;34.90;1.00;;;;;;5037420;28;20500;-72
2023/05/22 08:28:17;;;;;;;806.80;741.07;;;37.50;1.00;;;;;;5037199;28;20222;-72
2023/05/22 08:30:43;;;;;;;859.07;787.43;;;38.30;1.00;;;;;;5037081;28;20203;-69
2023/05/22 08:33:08;;;;;;;768.37;709.97;;;37.80;1.00;;;;;;5037112;28;20206;-71
2023/05/22 08:35:34;;;;;;;887.93;810.83;;;39.20;1.00;;;;;;5037205;28;20183;-71
2023/05/22 08:37:59;;;;;;;824.60;761.37;;;38.60;1.00;;;;;;5037234;28;20515;-71
2023/05/22 08:40:36;;;;;;;786.43;724.93;;;39.50;1.00;;;;;;5037222;28;20171;-71
2023/05/22 08:43:03;;;;;;;733.83;678.63;;;40.60;1.00;;;;;;5037132;28;20194;-72
2023/05/22 08:45:32;;;;;;;63.43;20.60;;;41.20;1.00;;;;;;5037540;28;20567;-71
2023/05/22 08:48:01;;;;;;;15.53;14.03;;;41.20;1.00;;;;;;5016880;28;20425;-71
2023/05/22 08:50:26;;;;;;;17.97;16.33;;;41.00;1.00;;;;;;5034208;28;20454;-71
2023/05/22 08:52:56;;;;;;;13.80;12.47;;;40.50;1.00;;;;;;5033689;28;20935;-72
2023/05/22 08:55:22;;;;;;;86.90;29.10;;;41.50;1.00;;;;;;5034165;28;20167;-71
2023/05/22 08:57:48;;;;;;;18.57;16.97;;;40.40;1.00;;;;;;5034274;28;20760;-72
2023/05/22 09:00:15;;;;;;;69.47;30.43;;;40.80;1.00;;;;;;5034381;28;20183;-72
2023/05/22 09:02:41;;;;;;;118.00;30.17;;;39.30;1.00;;;;;;5034187;28;20508;-71
2023/05/22 09:05:08;;;;;;;25.93;15.00;;;36.80;1.00;;;;;;5033811;28;20421;-71
2023/05/22 09:07:34;;;;;;;150.73;43.50;;;36.20;1.00;;;;;;5033988;28;20182;-70
2023/05/22 09:10:03;;;;;;;81.57;27.57;;;34.80;1.00;;;;;;5033173;28;20446;-71
2023/05/22 09:12:30;;;;;;;225.90;58.63;;;32.10;1.00;;;;;;5032995;28;20525;-71
2023/05/22 09:14:57;;;;;;;138.43;47.90;;;30.20;1.00;;;;;;5033295;28;20413;-70
2023/05/22 09:17:25;;;;;;;215.67;76.33;;;29.10;1.00;;;;;;5033064;28;20752;-71
2023/05/22 09:19:50;;;;;;;579.87;189.77;;;28.00;3.60;;;;;;5033123;28;20537;-70
2023/05/22 09:22:16;;;;;;;95.17;30.63;;;27.60;4.60;;;;;;5014799;28;20437;-72
2023/05/22 09:24:43;;;;;;;92.97;35.83;;;26.90;2.20;;;;;;5033133;28;20541;-71
2023/05/22 09:27:10;;;;;;;525.03;227.87;;;26.70;2.60;;;;;;5032854;28;20175;-71
2023/05/22 09:29:53;;;;;;;1060.33;466.77;;;25.90;3.00;;;;;;5033126;28;20414;-71
2023/05/22 09:32:19;;;;;;;845.53;381.00;;;25.90;3.30;;;;;;5032412;28;20445;-71
2023/05/22 09:34:46;;;;;;;217.47;90.97;;;25.90;4.00;;;;;;5032754;28;20410;-72
2023/05/22 09:37:12;;;;;;;422.10;131.03;;;25.90;4.30;;;;;;5032693;28;20233;-70
2023/05/22 09:39:42;;;;;;;1290.30;604.13;;;25.70;4.00;;;;;;5032660;28;20410;-70
2023/05/22 09:42:10;;;;;;;615.53;247.10;;;25.50;4.30;;;;;;5014305;28;20445;-71
2023/05/22 09:44:36;;;;;;;747.33;319.83;;;25.50;5.80;;;;;;5032437;28;20970;-69
2023/05/22 09:47:02;;;;;;;118.00;65.83;;;25.30;5.40;;;;;;5032599;28;20497;-69
2023/05/22 09:49:28;;;;;;;780.20;272.83;;;25.30;6.10;;;;;;5032483;28;20171;-69
2023/05/22 09:51:55;;;;;;;860.47;371.13;;;25.30;6.10;;;;;;5032251;28;20531;-71
2023/05/22 09:54:24;;;;;;;586.17;188.53;;;25.60;5.80;;;;;;5032559;28;20334;-69
2023/05/22 09:56:54;;;;;;;578.57;226.07;;;25.70;4.10;;;;;;5032319;28;20471;-70
2023/05/22 09:59:25;;;;;;;234.50;77.20;;;25.50;4.00;;;;;;5031952;28;20513;-70
2023/05/22 10:01:52;;;;;;;561.50;289.30;;;25.50;4.50;;;;;;5031888;28;20442;-69
2023/05/22 10:04:20;;;;;;;747.73;376.30;;;25.60;4.10;;;;;;5032031;28;20429;-69
2023/05/22 10:06:52;;;;;;;89.17;59.23;;;25.70;3.90;;;;;;5032083;28;20433;-69
2023/05/22 10:09:22;;;;;;;556.33;294.90;;;25.70;4.90;;;;;;5031982;28;20505;-70
2023/05/22 10:11:51;;;;;;;744.00;359.60;;;25.70;4.10;;;;;;5031523;28;20786;-70
2023/05/22 10:14:17;;;;;;;634.70;387.13;;;25.70;3.70;;;;;;5014000;28;20422;-69
2023/05/22 10:16:44;;;;;;;647.17;331.10;;;25.60;3.90;;;;;;5031831;28;20410;-69
2023/05/22 10:19:10;;;;;;;410.83;273.00;;;25.90;4.10;;;;;;5031764;28;20418;-69
2023/05/22 10:21:37;;;;;;;442.73;236.87;;;26.10;3.40;;;;;;5013590;28;20659;-69
2023/05/22 10:24:05;;;;;;;466.43;244.43;;;26.00;4.00;;;;;;5013876;28;20483;-69
2023/05/22 10:26:31;;;;;;;539.83;273.27;;;26.20;3.50;;;;;;5031402;28;20912;-69
2023/05/22 10:29:03;;;;;;;920.23;457.30;;;26.30;3.30;;;;;;5031515;28;20418;-69
2023/05/22 10:31:42;;;;;;;225.07;152.70;;;26.30;2.70;;;;;;5013446;28;20771;-69
2023/05/22 10:34:15;;;;;;;412.47;231.10;;;26.00;3.80;;;;;;5031521;28;20417;-68
2023/05/22 10:37:28;;;;;;;672.30;326.73;;;26.20;3.00;;;;;;5031534;28;20414;-69
2023/05/22 10:39:57;;;;;;;326.83;227.07;;;26.20;4.20;;;;;;5027368;28;20430;-70
2023/05/22 10:42:22;;;;;;;610.80;347.80;;;26.10;3.10;;;;;;5030984;28;20457;-69
2023/05/22 10:44:48;;;;;;;575.57;272.13;;;26.10;3.30;;;;;;5031404;28;20781;-70
2023/05/22 10:47:14;;;;;;;306.03;171.77;;;26.20;4.00;;;;;;5031124;28;20171;-70
2023/05/22 10:49:45;;;;;;;834.57;495.43;;;26.30;3.50;;;;;;5031664;28;20772;-69
2023/05/22 10:52:13;;;;;;;722.73;356.80;;;26.50;2.90;;;;;;5031264;28;20498;-69
2023/05/22 10:54:43;;;;;;;458.10;256.73;;;26.60;2.50;;;;;;5031358;28;20494;-69
2023/05/22 10:57:14;;;;;;;684.70;361.77;;;26.50;2.50;;;;;;5031366;28;20920;-69
2023/05/22 10:59:41;;;;;;;449.10;233.63;;;26.50;2.50;;;;;;5031044;28;20454;-69
2023/05/22 11:02:20;;;;;;;1098.07;528.57;;;26.40;2.40;;;;;;5030805;28;20431;-69
2023/05/22 11:04:46;;;;;;;581.57;328.07;;;26.50;2.90;;;;;;5031100;28;20414;-69
2023/05/22 11:07:13;;;;;;;554.80;310.97;;;26.50;2.50;;;;;;5031143;28;20916;-69
2023/05/22 11:09:44;;;;;;;952.07;518.83;;;26.50;2.90;;;;;;5030972;28;20171;-69
2023/05/22 11:12:23;;;;;;;761.73;687.50;;;26.40;2.70;;;;;;5029974;28;20440;-70
2023/05/22 11:14:58;;;;;;;875.03;788.67;;;26.30;2.30;;;;;;5031349;28;20830;-69
2023/05/22 11:17:27;;;;;;;1065.00;973.60;;;26.40;2.40;;;;;;5031138;28;20405;-69
2023/05/22 11:20:04;;;;;;;755.80;642.47;;;26.50;2.50;;;;;;5030810;28;20506;-69
2023/05/22 11:22:34;;;;;;;758.03;641.07;;;26.60;2.50;;;;;;5030649;28;20533;-70
2023/05/22 11:25:03;;;;;;;687.30;623.77;;;26.70;2.60;;;;;;5030876;28;20406;-71
2023/05/22 11:27:29;;;;;;;776.93;602.33;;;26.70;2.60;;;;;;5031009;28;20460;-71
2023/05/22 11:29:55;;;;;;;843.50;614.27;;;26.60;2.50;;;;;;5030732;28;20409;-71
2023/05/22 11:32:23;;;;;;;663.27;485.93;;;26.60;2.50;;;;;;5030530;28;20957;-68
2023/05/22 11:34:49;;;;;;;746.50;671.63;;;26.70;2.60;;;;;;5031194;28;20172;-71
2023/05/22 11:37:17;;;;;;;664.83;598.40;;;26.80;2.60;;;;;;5030925;28;20521;-71
2023/05/22 11:39:56;;;;;;;767.47;611.30;;;26.80;1.10;;;;;;5031029;28;20410;-71
2023/05/22 11:42:21;;;;;;;787.00;703.13;;;26.80;1.20;;;;;;5021507;28;20445;-71
2023/05/22 11:44:47;;;;;;;796.30;719.37;;;27.00;1.00;;;;;;5019693;28;20778;-71
2023/05/22 11:47:13;;;;;;;760.80;684.03;;;27.10;1.00;;;;;;5004536;28;20324;-71
2023/05/22 11:49:42;;;;;;;760.03;680.07;;;27.20;1.00;;;;;;5030828;28;20198;-71
2023/05/22 11:52:09;;;;;;;809.73;723.00;;;27.40;1.00;;;;;;5030396;28;20445;-71
2023/05/22 11:54:35;;;;;;;776.70;697.50;;;27.40;1.00;;;;;;5019283;28;20442;-71
2023/05/22 11:57:08;;;;;;;903.43;813.83;;;27.30;1.00;;;;;;5024901;28;20446;-69
2023/05/22 11:59:33;;;;;;;734.27;656.53;;;27.30;1.00;;;;;;5030652;28;20420;-71
2023/05/22 12:01:59;;;;;;;947.67;857.20;;;27.40;1.00;;;;;;5030773;28;20517;-69
2023/05/22 12:04:25;;;;;;;1057.23;957.07;;;27.60;1.00;;;;;;5030510;28;20562;-69
2023/05/22 12:06:52;;;;;;;957.33;853.10;;;27.80;1.00;;;;;;5030695;28;20190;-69
2023/05/22 12:09:17;;;;;;;933.00;837.80;;;28.00;1.00;;;;;;5030477;28;20214;-69
2023/05/22 12:11:47;;;;;;;888.80;794.10;;;28.00;1.00;;;;;;5030174;28;20497;-72
2023/05/22 12:14:13;;;;;;;890.10;806.37;;;27.70;1.00;;;;;;5030559;28;20175;-71